createdAt,value
2023-04-29T00:01:59.139Z,2.89
2023-04-29T00:04:27.410Z,2.86
2023-04-29T00:06:55.863Z,2.83
2023-04-29T00:09:24.249Z,2.82
2023-04-29T00:11:52.511Z,2.79
2023-04-29T00:14:21.261Z,2.78
2023-04-29T00:16:50.040Z,2.78
2023-04-29T00:19:19.145Z,2.76
2023-04-29T00:21:47.473Z,2.75
2023-04-29T00:24:15.672Z,2.75
2023-04-29T00:26:43.862Z,2.75
2023-04-29T00:29:12.196Z,2.75
2023-04-29T00:31:40.417Z,2.76
2023-04-29T00:34:08.690Z,2.77
2023-04-29T00:36:37.186Z,2.76
2023-04-29T00:39:05.849Z,2.76
2023-04-29T00:41:34.744Z,2.76
2023-04-29T00:44:02.915Z,2.76
2023-04-29T00:46:31.048Z,2.76
2023-04-29T00:49:00.534Z,2.75
2023-04-29T00:51:29.326Z,2.74
2023-04-29T00:53:57.735Z,2.71
2023-04-29T00:56:26.093Z,2.68
2023-04-29T00:58:54.644Z,2.66
2023-04-29T01:01:23.434Z,2.63
2023-04-29T01:03:51.918Z,2.61
2023-04-29T01:06:35.164Z,2.59
2023-04-29T01:09:41.825Z,2.57
2023-04-29T01:12:17.249Z,2.54
2023-04-29T01:14:53.353Z,2.51
2023-04-29T01:17:27.166Z,2.50
2023-04-29T01:19:57.273Z,2.49
2023-04-29T01:22:25.482Z,2.49
2023-04-29T01:24:54.992Z,2.48
2023-04-29T01:27:35.438Z,2.45
2023-04-29T01:30:15.175Z,2.43
2023-04-29T01:33:01.918Z,2.40
2023-04-29T01:36:13.538Z,2.36
2023-04-29T01:38:58.413Z,2.33
2023-04-29T01:41:44.394Z,2.30
2023-04-29T01:44:27.524Z,2.28
2023-04-29T01:46:56.991Z,2.25
2023-04-29T01:49:37.534Z,2.23
2023-04-29T01:52:09.940Z,2.20
2023-04-29T01:54:39.794Z,2.16
2023-04-29T01:57:08.063Z,2.12
2023-04-29T01:59:45.676Z,2.09
2023-04-29T02:02:34.316Z,2.04
2023-04-29T02:05:12.722Z,2.00
2023-04-29T02:07:44.724Z,1.96
2023-04-29T02:10:13.515Z,1.93
2023-04-29T02:12:42.322Z,1.89
2023-04-29T02:15:10.863Z,1.85
2023-04-29T02:17:39.022Z,1.83
2023-04-29T02:20:08.137Z,1.81
2023-04-29T02:22:36.961Z,1.77
2023-04-29T02:25:07.065Z,1.73
2023-04-29T02:27:35.271Z,1.69
2023-04-29T02:30:04.968Z,1.66
2023-04-29T02:32:33.288Z,1.63
2023-04-29T02:35:02.026Z,1.59
2023-04-29T02:37:30.151Z,1.56
2023-04-29T02:39:58.302Z,1.53
2023-04-29T02:42:26.424Z,1.48
2023-04-29T02:44:54.569Z,1.45
2023-04-29T02:47:22.738Z,1.42
2023-04-29T02:49:51.296Z,1.40
2023-04-29T02:52:19.701Z,1.37
2023-04-29T02:54:48.098Z,1.33
2023-04-29T02:57:16.282Z,1.29
2023-04-29T02:59:44.552Z,1.25
2023-04-29T03:02:12.822Z,1.20
2023-04-29T03:04:42.463Z,1.15
2023-04-29T03:07:10.594Z,1.12
2023-04-29T03:09:39.027Z,1.08
2023-04-29T03:12:07.245Z,1.05
2023-04-29T03:14:36.559Z,1.03
2023-04-29T03:17:04.916Z,1.00
2023-04-29T03:19:33.318Z,0.96
2023-04-29T03:22:01.895Z,0.95
2023-04-29T03:24:31.111Z,0.93
2023-04-29T03:27:00.410Z,0.90
2023-04-29T03:29:28.601Z,0.88
2023-04-29T03:31:57.972Z,0.86
2023-04-29T03:34:26.257Z,0.86
2023-04-29T03:37:06.878Z,0.85
2023-04-29T03:39:38.577Z,0.84
2023-04-29T03:42:07.103Z,0.84
2023-04-29T03:44:35.400Z,0.84
2023-04-29T03:47:03.636Z,0.84
2023-04-29T03:49:31.953Z,0.85
2023-04-29T03:52:00.140Z,0.87
2023-04-29T03:54:28.568Z,0.88
2023-04-29T03:56:56.791Z,0.89
2023-04-29T03:59:25.288Z,0.90
2023-04-29T04:01:54.564Z,0.89
2023-04-29T04:04:23.053Z,0.91
2023-04-29T04:06:52.110Z,0.92
2023-04-29T04:09:22.295Z,0.93
2023-04-29T04:11:52.477Z,0.96
2023-04-29T04:14:20.924Z,0.99
2023-04-29T04:16:50.874Z,1.03
2023-04-29T04:19:19.123Z,1.07
2023-04-29T04:21:47.483Z,1.12
2023-04-29T04:24:15.834Z,1.18
2023-04-29T04:26:44.050Z,1.24
2023-04-29T04:29:32.450Z,1.29
2023-04-29T04:32:15.657Z,1.37
2023-04-29T04:34:44.072Z,1.46
2023-04-29T04:37:12.406Z,1.57
2023-04-29T04:39:41.518Z,1.69
2023-04-29T04:42:12.896Z,1.84
2023-04-29T04:44:41.240Z,2.01
2023-04-29T04:47:16.364Z,2.17
2023-04-29T04:49:53.389Z,2.32
2023-04-29T04:52:22.549Z,2.46
2023-04-29T04:54:57.805Z,2.61
2023-04-29T04:57:28.843Z,2.75
2023-04-29T04:59:57.814Z,2.89
2023-04-29T05:02:26.326Z,3.00
2023-04-29T05:04:54.953Z,3.10
2023-04-29T05:07:25.846Z,3.21
2023-04-29T05:10:02.795Z,3.32
2023-04-29T05:12:35.425Z,3.43
2023-04-29T05:15:05.838Z,3.55
2023-04-29T05:17:36.933Z,3.68
2023-04-29T05:20:06.300Z,3.82
2023-04-29T05:22:34.743Z,3.99
2023-04-29T05:25:03.891Z,4.16
2023-04-29T05:27:33.510Z,4.33
2023-04-29T05:30:02.401Z,4.50
2023-04-29T05:32:30.749Z,4.67
2023-04-29T05:34:59.090Z,4.79
2023-04-29T05:37:30.957Z,4.89
2023-04-29T05:40:13.419Z,5.03
2023-04-29T05:42:41.841Z,5.18
2023-04-29T05:45:10.653Z,5.32
2023-04-29T05:47:38.877Z,5.46
2023-04-29T05:50:07.956Z,5.64
2023-04-29T05:52:36.672Z,5.88
2023-04-29T05:55:05.299Z,6.14
2023-04-29T05:57:33.769Z,6.36
2023-04-29T06:00:02.038Z,6.55
2023-04-29T06:02:54.838Z,6.81
2023-04-29T06:05:27.790Z,7.11
2023-04-29T06:08:10.906Z,7.43
2023-04-29T06:10:47.962Z,7.75
2023-04-29T06:13:16.854Z,7.97
2023-04-29T06:15:45.190Z,8.09
2023-04-29T06:18:15.237Z,8.20
2023-04-29T06:20:44.183Z,8.28
2023-04-29T06:23:12.817Z,8.33
2023-04-29T06:25:41.322Z,8.38
2023-04-29T06:28:11.524Z,8.41
2023-04-29T06:30:39.761Z,8.46
2023-04-29T06:33:08.325Z,8.51
2023-04-29T06:35:41.244Z,8.55
2023-04-29T06:38:24.928Z,8.62
2023-04-29T06:41:13.311Z,8.72
2023-04-29T06:43:45.440Z,8.86
2023-04-29T06:46:37.196Z,9.09
2023-04-29T06:49:10.731Z,9.30
2023-04-29T06:51:39.105Z,9.50
2023-04-29T06:54:07.598Z,9.66
2023-04-29T06:56:35.906Z,9.82
2023-04-29T06:59:04.639Z,9.98
2023-04-29T07:01:32.784Z,10.14
2023-04-29T07:04:01.198Z,10.29
2023-04-29T07:06:29.606Z,10.43
2023-04-29T07:08:57.861Z,10.62
2023-04-29T07:11:27.983Z,10.82
2023-04-29T07:13:56.209Z,11.17
2023-04-29T07:16:26.753Z,11.61
2023-04-29T07:18:55.273Z,12.04
2023-04-29T07:21:23.874Z,12.46
2023-04-29T07:23:52.085Z,12.80
2023-04-29T07:26:21.510Z,13.09
2023-04-29T07:28:50.139Z,13.43
2023-04-29T07:31:18.392Z,13.67
2023-04-29T07:33:49.440Z,13.85
2023-04-29T07:36:18.626Z,14.06
2023-04-29T07:38:47.020Z,14.29
2023-04-29T07:41:15.988Z,14.55
2023-04-29T07:43:44.180Z,14.78
2023-04-29T07:46:16.594Z,14.98
2023-04-29T07:48:45.728Z,15.21
2023-04-29T07:51:15.181Z,15.42
2023-04-29T07:53:44.204Z,15.64
2023-04-29T07:56:12.480Z,15.82
2023-04-29T07:58:41.375Z,15.97
2023-04-29T08:01:11.792Z,16.08
2023-04-29T08:03:41.941Z,16.14
2023-04-29T08:06:11.597Z,16.22
2023-04-29T08:08:39.972Z,16.32
2023-04-29T08:11:08.277Z,16.46
2023-04-29T08:13:39.089Z,16.59
2023-04-29T08:16:09.737Z,16.70
2023-04-29T08:18:48.340Z,16.89
2023-04-29T08:21:16.729Z,17.05
2023-04-29T08:23:45.348Z,17.25
2023-04-29T08:26:13.648Z,17.42
2023-04-29T08:28:41.911Z,17.50
2023-04-29T08:31:17.677Z,17.66
2023-04-29T08:33:46.205Z,17.97
2023-04-29T08:36:23.142Z,18.30
2023-04-29T08:38:52.983Z,18.39
2023-04-29T08:41:21.486Z,18.36
2023-04-29T08:43:49.586Z,18.36
2023-04-29T08:46:18.930Z,18.29
2023-04-29T08:48:48.573Z,18.26
2023-04-29T08:51:17.107Z,18.21
2023-04-29T08:53:45.922Z,18.13
2023-04-29T08:56:31.133Z,18.09
2023-04-29T08:59:01.869Z,18.06
2023-04-29T09:01:31.225Z,18.08
2023-04-29T09:04:24.066Z,18.16
2023-04-29T09:07:04.433Z,18.24
2023-04-29T09:09:33.551Z,18.32
2023-04-29T09:12:01.961Z,18.46
2023-04-29T09:14:34.431Z,18.60
2023-04-29T09:17:02.795Z,18.67
2023-04-29T09:19:33.318Z,18.77
2023-04-29T09:22:12.036Z,18.89
2023-04-29T09:24:40.385Z,19.05
2023-04-29T09:27:09.370Z,19.40
2023-04-29T09:29:39.472Z,19.84
2023-04-29T09:32:47.873Z,20.02
2023-04-29T09:35:24.355Z,20.04
2023-04-29T09:37:56.509Z,20.08
2023-04-29T09:40:57.268Z,20.11
2023-04-29T09:43:27.478Z,20.14
2023-04-29T09:45:56.173Z,20.17
2023-04-29T09:48:33.820Z,20.30
2023-04-29T09:51:03.564Z,20.41
2023-04-29T09:53:40.581Z,20.39
2023-04-29T09:56:09.546Z,20.33
2023-04-29T09:58:39.160Z,20.41
2023-04-29T10:01:08.353Z,20.50
2023-04-29T10:03:38.589Z,20.72
2023-04-29T10:06:08.348Z,20.97
2023-04-29T10:08:36.699Z,21.10
2023-04-29T10:11:06.063Z,21.19
2023-04-29T10:13:42.024Z,21.01
2023-04-29T10:16:34.578Z,20.66
2023-04-29T10:19:06.961Z,20.39
2023-04-29T10:21:36.586Z,20.27
2023-04-29T10:24:06.587Z,20.22
2023-04-29T10:26:47.038Z,20.18
2023-04-29T10:29:18.360Z,20.20
2023-04-29T10:31:50.419Z,20.24
2023-04-29T10:34:20.139Z,20.28
2023-04-29T10:36:50.343Z,20.32
2023-04-29T10:39:47.159Z,20.45
2023-04-29T10:43:02.307Z,20.65
2023-04-29T10:45:36.538Z,21.11
2023-04-29T10:48:14.351Z,21.51
2023-04-29T10:50:49.123Z,21.83
2023-04-29T10:53:20.162Z,21.96
2023-04-29T10:55:59.086Z,21.98
2023-04-29T10:58:37.950Z,21.90
2023-04-29T11:01:08.188Z,21.85
2023-04-29T11:04:03.724Z,21.91
2023-04-29T11:06:43.556Z,21.95
2023-04-29T11:09:21.118Z,22.07
2023-04-29T11:12:08.940Z,22.15
2023-04-29T11:14:37.147Z,22.09
2023-04-29T11:17:16.233Z,22.00
2023-04-29T11:19:46.609Z,22.00
2023-04-29T11:22:18.288Z,21.89
2023-04-29T11:25:00.901Z,21.70
2023-04-29T11:27:33.828Z,21.61
2023-04-29T11:30:05.538Z,21.43
2023-04-29T11:32:46.604Z,21.20
2023-04-29T11:35:17.131Z,21.01
2023-04-29T11:37:47.701Z,20.87
2023-04-29T11:40:17.125Z,20.70
2023-04-29T11:42:48.238Z,20.60
2023-04-29T11:45:28.967Z,20.56
2023-04-29T11:47:57.335Z,20.40
2023-04-29T11:50:26.719Z,20.31
2023-04-29T11:52:54.924Z,20.28
2023-04-29T11:55:23.348Z,20.24
2023-04-29T11:57:52.679Z,20.21
2023-04-29T12:00:21.115Z,20.25
2023-04-29T12:02:49.506Z,20.25
2023-04-29T12:05:19.565Z,20.23
2023-04-29T12:07:50.661Z,20.23
2023-04-29T12:10:26.953Z,20.26
2023-04-29T12:12:55.984Z,20.18
2023-04-29T12:15:24.408Z,19.99
2023-04-29T12:17:53.069Z,19.83
2023-04-29T12:20:21.763Z,19.78
2023-04-29T12:22:49.957Z,19.66
2023-04-29T12:25:18.421Z,19.58
2023-04-29T12:27:46.635Z,19.53
2023-04-29T12:30:14.931Z,19.54
2023-04-29T12:32:43.667Z,19.57
2023-04-29T12:35:17.370Z,19.58
2023-04-29T12:37:51.108Z,19.61
2023-04-29T12:40:20.987Z,19.62
2023-04-29T12:42:49.462Z,19.61
2023-04-29T12:45:32.755Z,19.69
2023-04-29T12:48:02.405Z,19.73
2023-04-29T12:50:33.665Z,19.77
2023-04-29T12:53:04.065Z,19.82
2023-04-29T12:55:36.990Z,19.84
2023-04-29T12:58:05.950Z,19.86
2023-04-29T13:00:35.401Z,19.88
2023-04-29T13:03:04.588Z,19.90
2023-04-29T13:05:33.101Z,19.93
2023-04-29T13:08:01.692Z,19.93
2023-04-29T13:10:29.900Z,19.98
2023-04-29T13:12:58.097Z,20.03
2023-04-29T13:15:27.815Z,20.04
2023-04-29T13:17:56.335Z,20.00
2023-04-29T13:20:24.446Z,19.98
2023-04-29T13:22:52.671Z,19.96
2023-04-29T13:25:21.229Z,20.01
2023-04-29T13:27:49.911Z,20.15
2023-04-29T13:30:18.232Z,20.23
2023-04-29T13:32:54.124Z,20.30
2023-04-29T13:35:23.918Z,20.39
2023-04-29T13:37:52.559Z,20.44
2023-04-29T13:40:21.389Z,20.51
2023-04-29T13:42:50.815Z,20.50
2023-04-29T13:45:29.086Z,20.41
2023-04-29T13:48:09.649Z,20.34
2023-04-29T13:53:49.743Z,19.99
2023-04-29T13:59:23.193Z,19.79
2023-04-29T14:04:00.456Z,19.81
2023-04-29T14:06:29.414Z,19.84
2023-04-29T14:08:57.653Z,19.88
2023-04-29T14:11:26.354Z,19.95
2023-04-29T14:13:55.009Z,20.04
2023-04-29T14:16:23.118Z,20.10
2023-04-29T14:18:51.599Z,20.16
2023-04-29T14:21:22.583Z,20.23
2023-04-29T14:23:51.156Z,20.27
2023-04-29T14:28:57.653Z,20.29
2023-04-29T14:31:38.378Z,20.28
2023-04-29T14:34:06.724Z,20.34
2023-04-29T14:36:34.901Z,20.31
2023-04-29T14:39:04.409Z,20.14
2023-04-29T14:41:32.738Z,20.03
2023-04-29T14:44:01.070Z,20.00
2023-04-29T14:46:29.679Z,19.99
2023-04-29T14:48:57.912Z,19.94
2023-04-29T14:51:27.060Z,19.86
2023-04-29T14:53:55.297Z,19.78
2023-04-29T14:56:23.499Z,19.72
2023-04-29T14:58:51.827Z,19.69
2023-04-29T15:01:20.066Z,19.67
2023-04-29T15:03:48.486Z,19.65
2023-04-29T15:06:16.777Z,19.58
2023-04-29T15:08:45.119Z,19.46
2023-04-29T15:11:13.805Z,19.31
2023-04-29T15:13:42.492Z,19.16
2023-04-29T15:16:10.933Z,19.00
2023-04-29T15:18:39.171Z,18.89
2023-04-29T15:21:07.825Z,18.76
2023-04-29T15:23:43.752Z,18.64
2023-04-29T15:26:12.186Z,18.54
2023-04-29T15:28:41.171Z,18.44
2023-04-29T15:31:10.455Z,18.41
2023-04-29T15:33:39.017Z,18.34
2023-04-29T15:36:08.020Z,18.22
2023-04-29T15:38:36.718Z,18.15
2023-04-29T15:41:05.479Z,18.08
2023-04-29T15:43:34.287Z,18.00
2023-04-29T15:46:03.162Z,17.88
2023-04-29T15:48:31.775Z,17.80
2023-04-29T15:51:01.625Z,17.73
2023-04-29T15:53:30.695Z,17.70
2023-04-29T15:56:00.295Z,17.70
2023-04-29T15:58:39.852Z,17.63
2023-04-29T16:01:08.619Z,17.58
2023-04-29T16:03:37.246Z,17.52
2023-04-29T16:06:06.650Z,17.48
2023-04-29T16:08:35.035Z,17.42
2023-04-29T16:11:03.324Z,17.37
2023-04-29T16:13:31.606Z,17.36
2023-04-29T16:16:00.399Z,17.47
2023-04-29T16:18:28.621Z,17.63
2023-04-29T16:20:57.490Z,17.81
2023-04-29T16:23:25.868Z,17.92
2023-04-29T16:25:55.726Z,18.00
2023-04-29T16:28:31.426Z,18.07
2023-04-29T16:30:59.805Z,18.06
2023-04-29T16:33:28.113Z,18.02
2023-04-29T16:35:59.355Z,17.96
2023-04-29T16:38:27.481Z,17.91
2023-04-29T16:40:55.913Z,17.87
2023-04-29T16:43:24.033Z,17.81
2023-04-29T16:45:52.477Z,17.72
2023-04-29T16:48:20.691Z,17.64
2023-04-29T16:50:52.128Z,17.55
2023-04-29T16:53:21.303Z,17.42
2023-04-29T16:55:50.924Z,17.27
2023-04-29T16:58:19.465Z,17.16
2023-04-29T17:00:47.974Z,17.09
2023-04-29T17:03:16.485Z,17.02
2023-04-29T17:05:45.013Z,16.96
2023-04-29T17:08:14.887Z,16.86
2023-04-29T17:10:43.874Z,16.76
2023-04-29T17:13:12.113Z,16.67
2023-04-29T17:15:40.533Z,16.59
2023-04-29T17:18:08.667Z,16.51
2023-04-29T17:20:37.015Z,16.41
2023-04-29T17:23:05.727Z,16.32
2023-04-29T17:25:34.433Z,16.24
2023-04-29T17:28:03.840Z,16.15
2023-04-29T17:30:39.595Z,16.06
2023-04-29T17:33:07.876Z,15.95
2023-04-29T17:35:36.108Z,15.85
2023-04-29T17:38:04.607Z,15.74
2023-04-29T17:40:32.926Z,15.64
2023-04-29T17:43:01.318Z,15.53
2023-04-29T17:45:29.618Z,15.42
2023-04-29T17:47:58.030Z,15.33
2023-04-29T17:50:27.955Z,15.22
2023-04-29T17:52:56.153Z,15.10
2023-04-29T17:55:24.505Z,15.01
2023-04-29T17:57:52.643Z,14.91
2023-04-29T18:00:21.770Z,14.80
2023-04-29T18:02:50.207Z,14.69
2023-04-29T18:05:26.773Z,14.59
2023-04-29T18:07:57.949Z,14.47
2023-04-29T18:10:27.341Z,14.36
2023-04-29T18:12:55.642Z,14.26
2023-04-29T18:15:23.861Z,14.16
2023-04-29T18:17:52.152Z,14.06
2023-04-29T18:20:20.736Z,13.96
2023-04-29T18:22:50.803Z,13.86
2023-04-29T18:25:19.127Z,13.74
2023-04-29T18:27:48.181Z,13.62
2023-04-29T18:30:17.409Z,13.51
2023-04-29T18:32:46.099Z,13.40
2023-04-29T18:35:15.184Z,13.29
2023-04-29T18:37:43.616Z,13.19
2023-04-29T18:40:21.583Z,13.08
2023-04-29T18:42:49.876Z,12.98
2023-04-29T18:45:18.384Z,12.87
2023-04-29T18:47:46.871Z,12.76
2023-04-29T18:50:15.188Z,12.65
2023-04-29T18:52:43.480Z,12.55
2023-04-29T18:55:13.611Z,12.44
2023-04-29T18:57:42.399Z,12.33
2023-04-29T19:00:11.721Z,12.23
2023-04-29T19:02:40.175Z,12.13
2023-04-29T19:05:17.330Z,12.03
2023-04-29T19:07:47.927Z,11.94
2023-04-29T19:10:16.683Z,11.86
2023-04-29T19:12:45.058Z,11.77
2023-04-29T19:15:13.723Z,11.67
2023-04-29T19:17:42.258Z,11.57
2023-04-29T19:20:11.225Z,11.48
2023-04-29T19:22:39.571Z,11.41
2023-04-29T19:25:11.711Z,11.34
2023-04-29T19:27:45.219Z,11.26
2023-04-29T19:30:13.776Z,11.20
2023-04-29T19:32:42.096Z,11.14
2023-04-29T19:35:10.552Z,11.08
2023-04-29T19:37:39.274Z,11.02
2023-04-29T19:40:10.762Z,10.95
2023-04-29T19:42:40.068Z,10.88
2023-04-29T19:45:09.544Z,10.82
2023-04-29T19:47:38.415Z,10.76
2023-04-29T19:50:18.962Z,10.69
2023-04-29T19:52:47.991Z,10.61
2023-04-29T19:55:17.207Z,10.55
2023-04-29T19:57:45.750Z,10.50
2023-04-29T20:00:14.894Z,10.45
2023-04-29T20:02:43.681Z,10.40
2023-04-29T20:05:13.586Z,10.34
2023-04-29T20:07:50.089Z,10.28
2023-04-29T20:10:20.797Z,10.21
2023-04-29T20:12:49.032Z,10.14
2023-04-29T20:15:17.491Z,10.03
2023-04-29T20:17:45.994Z,9.93
2023-04-29T20:20:14.318Z,9.84
2023-04-29T20:22:42.596Z,9.76
2023-04-29T20:25:10.864Z,9.68
2023-04-29T20:27:39.214Z,9.60
2023-04-29T20:30:09.970Z,9.52
2023-04-29T20:32:40.862Z,9.43
2023-04-29T20:35:12.385Z,9.37
2023-04-29T20:38:35.274Z,9.30
2023-04-29T21:01:14.927Z,8.74
2023-04-29T21:03:47.190Z,8.69
2023-04-29T21:04:22.954Z,8.97
2023-04-29T21:06:16.539Z,8.65
2023-04-29T21:08:55.961Z,8.61
2023-04-29T21:11:30.029Z,8.56
2023-04-29T21:13:59.136Z,8.49
2023-04-29T21:16:30.203Z,8.45
2023-04-29T21:18:58.655Z,8.39
2023-04-29T21:21:31.732Z,8.34
2023-04-29T21:24:22.074Z,8.27
2023-04-29T21:27:03.727Z,8.24
2023-04-29T21:29:58.153Z,8.16
2023-04-29T21:32:41.356Z,8.12
2023-04-29T21:35:37.988Z,8.07
2023-04-29T21:38:43.101Z,7.98
2023-04-29T21:41:56.352Z,7.91
2023-04-29T21:44:50.931Z,7.83
2023-04-29T21:47:32.726Z,7.77
2023-04-29T21:50:18.360Z,7.72
2023-04-29T21:52:55.818Z,7.68
2023-04-29T21:55:46.713Z,7.64
2023-04-29T21:58:27.847Z,7.60
2023-04-29T22:01:05.839Z,7.56
2023-04-29T22:03:44.668Z,7.52
2023-04-29T22:06:18.955Z,7.48
2023-04-29T22:11:59.037Z,7.32
2023-04-29T22:14:56.786Z,7.21
2023-04-29T22:17:26.582Z,7.17
2023-04-29T22:20:00.459Z,7.10
2023-04-29T22:22:30.975Z,7.04
2023-04-29T22:25:04.774Z,6.99
2023-04-29T22:27:46.253Z,6.94
2023-04-29T22:30:31.951Z,6.88
2023-04-29T22:33:22.299Z,6.82
2023-04-29T22:36:25.091Z,6.77
2023-04-29T22:39:01.853Z,6.74
2023-04-29T22:41:41.365Z,6.70
2023-04-29T22:44:13.485Z,6.67
2023-04-29T22:46:45.306Z,6.64
2023-04-29T22:49:18.336Z,6.61
2023-04-29T22:51:47.188Z,6.58
2023-04-29T22:54:16.037Z,6.54
2023-04-29T22:56:44.648Z,6.49
2023-04-29T22:59:13.024Z,6.45
2023-04-29T23:01:41.669Z,6.41
2023-04-29T23:04:10.114Z,6.36
2023-04-29T23:06:42.323Z,6.32
2023-04-29T23:09:17.975Z,6.27
2023-04-29T23:11:46.670Z,6.22
2023-04-29T23:14:15.206Z,6.16
2023-04-29T23:16:43.670Z,6.11
2023-04-29T23:19:13.955Z,6.07
2023-04-29T23:21:42.365Z,6.03
2023-04-29T23:24:10.974Z,5.99
2023-04-29T23:26:46.273Z,5.96
2023-04-29T23:29:29.911Z,5.93
2023-04-29T23:32:07.141Z,5.90
2023-04-29T23:34:38.376Z,5.88
2023-04-29T23:37:11.226Z,5.85
2023-04-29T23:39:48.221Z,5.84
2023-04-29T23:42:28.414Z,5.81
2023-04-29T23:45:12.094Z,5.78
2023-04-29T23:47:41.672Z,5.74
2023-04-29T23:50:11.041Z,5.71
2023-04-29T23:52:50.271Z,5.69
2023-04-29T23:55:24.517Z,5.66
2023-04-29T23:58:16.006Z,5.62
